Parkers Settlement, Indiana
Current Conditions -  °F | °C
As of 9:54 PM on Tuesday 21 Oct 2014 (Local Time) from KEVV Reporting Station
Clear Clear  
Wind Chill: 48°   Ceiling: Unl
Heat Index: 48°   Visibility: 10mi
Dew Point: 40°   Wind: 3mph
Humidity: 74%   Direction: 10°N
Pressure: 30.19"   Gusts: NA
Location:  38.0787°N, 87.7717°W
Report Text: KEVV 220254Z 01003KT 10SM CLR 09/04 A3019 RMK AO2 SLP221 T00890044 52018
Loading
Personal Weather Stations






























Interactive Weather Map
Tropical Storm Tracking
New forecast layout! Learn more

10-Day Weather Forecast

Advertisements
Track Severe Weather on mobile